sensor_id;sensor_type;location;lat;lon;timestamp;P1;durP1;ratioP1;P2;durP2;ratioP2
54555;SDS011;57291;37.520;15.106;2023-09-19T00:00:56;20.90;;;7.75;;
54555;SDS011;57291;37.520;15.106;2023-09-19T00:03:24;26.75;;;7.18;;
54555;SDS011;57291;37.520;15.106;2023-09-19T00:05:52;17.05;;;6.88;;
54555;SDS011;57291;37.520;15.106;2023-09-19T00:08:19;27.50;;;7.55;;
54555;SDS011;57291;37.520;15.106;2023-09-19T00:10:51;28.70;;;7.30;;
54555;SDS011;57291;37.520;15.106;2023-09-19T00:13:18;20.95;;;6.93;;
54555;SDS011;57291;37.520;15.106;2023-09-19T00:15:46;19.75;;;5.68;;
54555;SDS011;57291;37.520;15.106;2023-09-19T00:18:19;20.23;;;6.47;;
54555;SDS011;57291;37.520;15.106;2023-09-19T00:20:58;20.48;;;6.68;;
54555;SDS011;57291;37.520;15.106;2023-09-19T00:23:25;18.38;;;5.50;;
54555;SDS011;57291;37.520;15.106;2023-09-19T00:25:53;23.10;;;6.30;;
54555;SDS011;57291;37.520;15.106;2023-09-19T00:28:24;15.98;;;5.82;;
54555;SDS011;57291;37.520;15.106;2023-09-19T00:30:52;18.20;;;5.88;;
54555;SDS011;57291;37.520;15.106;2023-09-19T00:33:21;22.23;;;5.55;;
54555;SDS011;57291;37.520;15.106;2023-09-19T00:35:49;20.52;;;6.70;;
54555;SDS011;57291;37.520;15.106;2023-09-19T00:38:18;19.88;;;6.60;;
54555;SDS011;57291;37.520;15.106;2023-09-19T00:40:51;21.88;;;6.60;;
54555;SDS011;57291;37.520;15.106;2023-09-19T00:43:24;22.67;;;6.28;;
54555;SDS011;57291;37.520;15.106;2023-09-19T00:45:52;15.27;;;5.32;;
54555;SDS011;57291;37.520;15.106;2023-09-19T00:48:21;21.25;;;5.80;;
54555;SDS011;57291;37.520;15.106;2023-09-19T00:50:50;26.08;;;6.85;;
54555;SDS011;57291;37.520;15.106;2023-09-19T00:53:19;19.38;;;6.72;;
54555;SDS011;57291;37.520;15.106;2023-09-19T00:55:50;18.98;;;6.18;;
54555;SDS011;57291;37.520;15.106;2023-09-19T00:58:20;19.58;;;6.13;;
54555;SDS011;57291;37.520;15.106;2023-09-19T01:00:51;17.58;;;6.70;;
54555;SDS011;57291;37.520;15.106;2023-09-19T01:03:20;22.85;;;6.43;;
54555;SDS011;57291;37.520;15.106;2023-09-19T01:05:48;19.88;;;6.00;;
54555;SDS011;57291;37.520;15.106;2023-09-19T01:08:17;20.30;;;5.32;;
54555;SDS011;57291;37.520;15.106;2023-09-19T01:11:28;20.13;;;6.38;;
54555;SDS011;57291;37.520;15.106;2023-09-19T01:13:44;21.42;;;6.85;;
54555;SDS011;57291;37.520;15.106;2023-09-19T01:16:36;19.13;;;5.88;;
54555;SDS011;57291;37.520;15.106;2023-09-19T01:31:04;19.13;;;5.20;;
54555;SDS011;57291;37.520;15.106;2023-09-19T01:33:54;25.60;;;5.95;;
54555;SDS011;57291;37.520;15.106;2023-09-19T01:36:27;13.40;;;4.70;;
54555;SDS011;57291;37.520;15.106;2023-09-19T01:38:57;17.27;;;4.65;;
54555;SDS011;57291;37.520;15.106;2023-09-19T01:47:19;17.67;;;5.40;;
54555;SDS011;57291;37.520;15.106;2023-09-19T01:50:17;19.92;;;5.30;;
54555;SDS011;57291;37.520;15.106;2023-09-19T01:52:57;17.10;;;4.75;;
54555;SDS011;57291;37.520;15.106;2023-09-19T01:55:33;19.25;;;5.20;;
54555;SDS011;57291;37.520;15.106;2023-09-19T01:58:06;16.40;;;4.90;;
54555;SDS011;57291;37.520;15.106;2023-09-19T02:00:37;17.38;;;4.55;;
54555;SDS011;57291;37.520;15.106;2023-09-19T02:03:09;18.42;;;4.70;;
54555;SDS011;57291;37.520;15.106;2023-09-19T02:05:38;17.40;;;5.03;;
54555;SDS011;57291;37.520;15.106;2023-09-19T02:08:06;14.00;;;4.90;;
54555;SDS011;57291;37.520;15.106;2023-09-19T02:10:33;19.85;;;5.07;;
54555;SDS011;57291;37.520;15.106;2023-09-19T02:13:01;19.95;;;5.13;;
54555;SDS011;57291;37.520;15.106;2023-09-19T02:15:31;16.85;;;5.28;;
54555;SDS011;57291;37.520;15.106;2023-09-19T02:18:01;22.85;;;5.03;;
54555;SDS011;57291;37.520;15.106;2023-09-19T02:20:30;20.50;;;4.15;;
54555;SDS011;57291;37.520;15.106;2023-09-19T02:22:59;20.73;;;4.60;;
54555;SDS011;57291;37.520;15.106;2023-09-19T02:25:27;24.73;;;5.38;;
54555;SDS011;57291;37.520;15.106;2023-09-19T02:27:54;23.15;;;5.38;;
54555;SDS011;57291;37.520;15.106;2023-09-19T02:30:25;18.92;;;4.72;;
54555;SDS011;57291;37.520;15.106;2023-09-19T02:32:55;19.10;;;5.00;;
54555;SDS011;57291;37.520;15.106;2023-09-19T02:35:22;22.98;;;4.47;;
54555;SDS011;57291;37.520;15.106;2023-09-19T02:37:50;20.20;;;5.30;;
54555;SDS011;57291;37.520;15.106;2023-09-19T02:40:17;19.98;;;4.95;;
54555;SDS011;57291;37.520;15.106;2023-09-19T02:42:48;25.77;;;5.82;;
54555;SDS011;57291;37.520;15.106;2023-09-19T02:45:21;21.98;;;5.57;;
54555;SDS011;57291;37.520;15.106;2023-09-19T02:47:50;17.55;;;4.18;;
54555;SDS011;57291;37.520;15.106;2023-09-19T02:50:17;18.33;;;4.50;;
54555;SDS011;57291;37.520;15.106;2023-09-19T02:52:47;18.15;;;4.85;;
54555;SDS011;57291;37.520;15.106;2023-09-19T02:55:16;20.58;;;4.38;;
54555;SDS011;57291;37.520;15.106;2023-09-19T02:57:50;19.50;;;4.53;;
54555;SDS011;57291;37.520;15.106;2023-09-19T03:00:21;15.57;;;4.03;;
54555;SDS011;57291;37.520;15.106;2023-09-19T03:02:49;18.17;;;4.32;;
54555;SDS011;57291;37.520;15.106;2023-09-19T03:05:19;16.83;;;4.28;;
54555;SDS011;57291;37.520;15.106;2023-09-19T03:07:48;20.80;;;4.55;;
54555;SDS011;57291;37.520;15.106;2023-09-19T03:10:19;24.23;;;5.10;;
54555;SDS011;57291;37.520;15.106;2023-09-19T03:12:47;17.25;;;4.18;;
54555;SDS011;57291;37.520;15.106;2023-09-19T03:15:15;20.60;;;4.50;;
54555;SDS011;57291;37.520;15.106;2023-09-19T03:17:44;15.93;;;3.95;;
54555;SDS011;57291;37.520;15.106;2023-09-19T03:20:17;23.92;;;4.60;;
54555;SDS011;57291;37.520;15.106;2023-09-19T03:22:46;16.25;;;4.40;;
54555;SDS011;57291;37.520;15.106;2023-09-19T03:25:16;23.40;;;4.47;;
54555;SDS011;57291;37.520;15.106;2023-09-19T03:27:49;18.63;;;3.95;;
54555;SDS011;57291;37.520;15.106;2023-09-19T03:30:17;21.55;;;4.63;;
54555;SDS011;57291;37.520;15.106;2023-09-19T03:32:45;21.55;;;4.78;;
54555;SDS011;57291;37.520;15.106;2023-09-19T03:35:14;19.20;;;4.57;;
54555;SDS011;57291;37.520;15.106;2023-09-19T03:37:41;26.92;;;4.50;;
54555;SDS011;57291;37.520;15.106;2023-09-19T03:40:10;17.25;;;4.05;;
54555;SDS011;57291;37.520;15.106;2023-09-19T03:42:39;13.05;;;4.57;;
54555;SDS011;57291;37.520;15.106;2023-09-19T03:45:12;19.05;;;5.57;;
54555;SDS011;57291;37.520;15.106;2023-09-19T03:47:45;27.23;;;6.60;;
54555;SDS011;57291;37.520;15.106;2023-09-19T03:50:18;18.95;;;5.88;;
54555;SDS011;57291;37.520;15.106;2023-09-19T03:52:46;13.40;;;5.65;;
54555;SDS011;57291;37.520;15.106;2023-09-19T03:55:13;15.48;;;5.95;;
54555;SDS011;57291;37.520;15.106;2023-09-19T03:57:41;15.93;;;5.18;;
54555;SDS011;57291;37.520;15.106;2023-09-19T04:00:09;21.27;;;4.97;;
54555;SDS011;57291;37.520;15.106;2023-09-19T04:02:39;23.88;;;6.35;;
54555;SDS011;57291;37.520;15.106;2023-09-19T04:05:08;18.98;;;5.82;;
54555;SDS011;57291;37.520;15.106;2023-09-19T04:07:37;22.85;;;5.57;;
54555;SDS011;57291;37.520;15.106;2023-09-19T04:10:04;22.92;;;4.88;;
54555;SDS011;57291;37.520;15.106;2023-09-19T04:12:32;25.33;;;6.13;;
54555;SDS011;57291;37.520;15.106;2023-09-19T04:15:00;22.20;;;5.20;;
54555;SDS011;57291;37.520;15.106;2023-09-19T04:17:27;20.73;;;5.82;;
54555;SDS011;57291;37.520;15.106;2023-09-19T04:19:55;23.27;;;5.40;;
54555;SDS011;57291;37.520;15.106;2023-09-19T04:22:22;21.48;;;5.72;;
54555;SDS011;57291;37.520;15.106;2023-09-19T04:24:50;27.58;;;6.25;;
54555;SDS011;57291;37.520;15.106;2023-09-19T04:27:17;21.20;;;5.38;;
54555;SDS011;57291;37.520;15.106;2023-09-19T04:29:45;21.42;;;6.05;;
54555;SDS011;57291;37.520;15.106;2023-09-19T04:32:12;24.23;;;6.35;;
54555;SDS011;57291;37.520;15.106;2023-09-19T04:34:40;22.40;;;5.50;;
54555;SDS011;57291;37.520;15.106;2023-09-19T04:37:07;27.02;;;6.70;;
54555;SDS011;57291;37.520;15.106;2023-09-19T04:39:34;25.30;;;6.45;;
54555;SDS011;57291;37.520;15.106;2023-09-19T04:42:01;24.05;;;5.95;;
54555;SDS011;57291;37.520;15.106;2023-09-19T04:44:30;23.77;;;6.07;;
54555;SDS011;57291;37.520;15.106;2023-09-19T04:46:57;24.45;;;6.10;;
54555;SDS011;57291;37.520;15.106;2023-09-19T04:49:24;19.48;;;5.65;;
54555;SDS011;57291;37.520;15.106;2023-09-19T04:51:52;26.08;;;5.93;;
54555;SDS011;57291;37.520;15.106;2023-09-19T04:54:20;32.45;;;6.55;;
54555;SDS011;57291;37.520;15.106;2023-09-19T04:56:50;20.02;;;5.97;;
54555;SDS011;57291;37.520;15.106;2023-09-19T04:59:17;20.48;;;5.88;;
54555;SDS011;57291;37.520;15.106;2023-09-19T05:01:45;26.95;;;5.57;;
54555;SDS011;57291;37.520;15.106;2023-09-19T05:04:13;22.48;;;5.85;;
54555;SDS011;57291;37.520;15.106;2023-09-19T05:06:41;20.38;;;5.78;;
54555;SDS011;57291;37.520;15.106;2023-09-19T05:09:12;20.90;;;5.60;;
54555;SDS011;57291;37.520;15.106;2023-09-19T05:11:40;18.65;;;6.13;;
54555;SDS011;57291;37.520;15.106;2023-09-19T05:14:07;26.80;;;7.00;;
54555;SDS011;57291;37.520;15.106;2023-09-19T05:16:34;21.90;;;5.82;;
54555;SDS011;57291;37.520;15.106;2023-09-19T05:19:02;21.85;;;6.22;;
54555;SDS011;57291;37.520;15.106;2023-09-19T05:21:30;24.20;;;5.95;;
54555;SDS011;57291;37.520;15.106;2023-09-19T05:23:57;28.67;;;6.47;;
54555;SDS011;57291;37.520;15.106;2023-09-19T05:26:25;30.38;;;6.10;;
54555;SDS011;57291;37.520;15.106;2023-09-19T05:28:52;24.90;;;6.65;;
54555;SDS011;57291;37.520;15.106;2023-09-19T05:31:19;21.80;;;5.82;;
54555;SDS011;57291;37.520;15.106;2023-09-19T05:33:47;30.38;;;6.30;;
54555;SDS011;57291;37.520;15.106;2023-09-19T05:36:14;18.52;;;5.78;;
54555;SDS011;57291;37.520;15.106;2023-09-19T05:38:43;24.15;;;6.13;;
54555;SDS011;57291;37.520;15.106;2023-09-19T05:41:11;29.15;;;7.50;;
54555;SDS011;57291;37.520;15.106;2023-09-19T05:43:40;29.30;;;7.18;;
54555;SDS011;57291;37.520;15.106;2023-09-19T05:46:08;28.15;;;7.90;;
54555;SDS011;57291;37.520;15.106;2023-09-19T05:48:36;31.20;;;6.85;;
54555;SDS011;57291;37.520;15.106;2023-09-19T05:51:03;24.40;;;6.93;;
54555;SDS011;57291;37.520;15.106;2023-09-19T05:53:31;25.75;;;6.43;;
54555;SDS011;57291;37.520;15.106;2023-09-19T05:55:58;28.70;;;7.07;;
54555;SDS011;57291;37.520;15.106;2023-09-19T05:58:27;22.30;;;5.75;;
54555;SDS011;57291;37.520;15.106;2023-09-19T06:00:55;24.05;;;6.60;;
54555;SDS011;57291;37.520;15.106;2023-09-19T06:03:22;18.17;;;5.75;;
54555;SDS011;57291;37.520;15.106;2023-09-19T06:05:50;23.15;;;6.60;;
54555;SDS011;57291;37.520;15.106;2023-09-19T06:08:20;24.98;;;6.88;;
54555;SDS011;57291;37.520;15.106;2023-09-19T06:10:48;23.60;;;6.63;;
54555;SDS011;57291;37.520;15.106;2023-09-19T06:13:15;20.02;;;7.00;;
54555;SDS011;57291;37.520;15.106;2023-09-19T06:15:44;17.75;;;6.03;;
54555;SDS011;57291;37.520;15.106;2023-09-19T06:18:13;21.52;;;7.03;;
54555;SDS011;57291;37.520;15.106;2023-09-19T06:20:44;25.40;;;6.90;;
54555;SDS011;57291;37.520;15.106;2023-09-19T06:23:12;23.02;;;6.85;;
54555;SDS011;57291;37.520;15.106;2023-09-19T06:25:39;29.42;;;6.70;;
54555;SDS011;57291;37.520;15.106;2023-09-19T06:28:07;27.17;;;6.80;;
54555;SDS011;57291;37.520;15.106;2023-09-19T06:30:38;33.00;;;7.72;;
54555;SDS011;57291;37.520;15.106;2023-09-19T06:33:09;29.70;;;7.30;;
54555;SDS011;57291;37.520;15.106;2023-09-19T06:35:38;36.05;;;7.55;;
54555;SDS011;57291;37.520;15.106;2023-09-19T06:38:05;32.90;;;7.50;;
54555;SDS011;57291;37.520;15.106;2023-09-19T06:40:34;29.33;;;6.80;;
54555;SDS011;57291;37.520;15.106;2023-09-19T06:43:02;26.65;;;6.78;;
54555;SDS011;57291;37.520;15.106;2023-09-19T06:45:32;27.55;;;6.53;;
54555;SDS011;57291;37.520;15.106;2023-09-19T06:47:59;38.30;;;8.77;;
54555;SDS011;57291;37.520;15.106;2023-09-19T06:50:27;32.30;;;7.13;;
54555;SDS011;57291;37.520;15.106;2023-09-19T06:52:55;22.15;;;5.93;;
54555;SDS011;57291;37.520;15.106;2023-09-19T06:55:25;24.40;;;5.88;;
54555;SDS011;57291;37.520;15.106;2023-09-19T06:57:55;28.27;;;5.97;;
54555;SDS011;57291;37.520;15.106;2023-09-19T07:00:23;24.77;;;6.38;;
54555;SDS011;57291;37.520;15.106;2023-09-19T07:03:00;28.67;;;6.32;;
54555;SDS011;57291;37.520;15.106;2023-09-19T07:05:31;27.25;;;7.18;;
54555;SDS011;57291;37.520;15.106;2023-09-19T07:07:59;31.85;;;7.40;;
54555;SDS011;57291;37.520;15.106;2023-09-19T07:10:28;27.10;;;6.57;;
54555;SDS011;57291;37.520;15.106;2023-09-19T07:13:05;34.17;;;7.55;;
54555;SDS011;57291;37.520;15.106;2023-09-19T07:15:37;30.75;;;6.65;;
54555;SDS011;57291;37.520;15.106;2023-09-19T07:18:08;28.73;;;6.47;;
54555;SDS011;57291;37.520;15.106;2023-09-19T07:20:38;39.60;;;6.75;;
54555;SDS011;57291;37.520;15.106;2023-09-19T07:23:05;31.85;;;6.65;;
54555;SDS011;57291;37.520;15.106;2023-09-19T07:25:32;31.67;;;6.82;;
54555;SDS011;57291;37.520;15.106;2023-09-19T07:28:02;32.88;;;5.80;;
54555;SDS011;57291;37.520;15.106;2023-09-19T07:30:29;22.65;;;5.93;;
54555;SDS011;57291;37.520;15.106;2023-09-19T07:32:57;24.67;;;5.57;;
54555;SDS011;57291;37.520;15.106;2023-09-19T07:35:24;25.45;;;5.65;;
54555;SDS011;57291;37.520;15.106;2023-09-19T07:37:52;32.45;;;6.53;;
54555;SDS011;57291;37.520;15.106;2023-09-19T07:40:20;31.23;;;5.72;;
54555;SDS011;57291;37.520;15.106;2023-09-19T07:42:48;27.40;;;6.18;;
54555;SDS011;57291;37.520;15.106;2023-09-19T07:45:15;25.45;;;5.30;;
54555;SDS011;57291;37.520;15.106;2023-09-19T07:47:47;27.80;;;6.30;;
54555;SDS011;57291;37.520;15.106;2023-09-19T07:50:16;24.35;;;6.47;;
54555;SDS011;57291;37.520;15.106;2023-09-19T07:52:48;22.37;;;5.30;;
54555;SDS011;57291;37.520;15.106;2023-09-19T07:55:19;28.92;;;6.13;;
54555;SDS011;57291;37.520;15.106;2023-09-19T07:57:50;32.67;;;5.72;;
54555;SDS011;57291;37.520;15.106;2023-09-19T08:00:21;28.10;;;6.35;;
54555;SDS011;57291;37.520;15.106;2023-09-19T08:02:48;20.73;;;5.53;;
54555;SDS011;57291;37.520;15.106;2023-09-19T08:05:24;24.65;;;6.38;;
54555;SDS011;57291;37.520;15.106;2023-09-19T08:07:52;24.73;;;5.57;;
54555;SDS011;57291;37.520;15.106;2023-09-19T08:10:20;27.70;;;5.25;;
54555;SDS011;57291;37.520;15.106;2023-09-19T08:12:48;29.20;;;6.47;;
54555;SDS011;57291;37.520;15.106;2023-09-19T08:15:16;25.27;;;5.70;;
54555;SDS011;57291;37.520;15.106;2023-09-19T08:17:47;23.27;;;5.82;;
54555;SDS011;57291;37.520;15.106;2023-09-19T08:20:15;24.38;;;5.35;;
54555;SDS011;57291;37.520;15.106;2023-09-19T08:22:49;28.95;;;5.68;;
54555;SDS011;57291;37.520;15.106;2023-09-19T08:25:23;27.00;;;6.07;;
54555;SDS011;57291;37.520;15.106;2023-09-19T08:27:54;31.30;;;6.50;;
54555;SDS011;57291;37.520;15.106;2023-09-19T08:30:25;25.88;;;5.47;;
54555;SDS011;57291;37.520;15.106;2023-09-19T08:32:57;35.80;;;5.82;;
54555;SDS011;57291;37.520;15.106;2023-09-19T08:35:30;29.65;;;6.47;;
54555;SDS011;57291;37.520;15.106;2023-09-19T08:37:57;25.83;;;5.85;;
54555;SDS011;57291;37.520;15.106;2023-09-19T08:40:24;25.02;;;5.28;;
54555;SDS011;57291;37.520;15.106;2023-09-19T08:42:54;45.78;;;6.78;;
54555;SDS011;57291;37.520;15.106;2023-09-19T08:45:23;27.83;;;5.70;;
54555;SDS011;57291;37.520;15.106;2023-09-19T08:47:58;26.38;;;6.30;;
54555;SDS011;57291;37.520;15.106;2023-09-19T08:50:27;24.48;;;5.55;;
54555;SDS011;57291;37.520;15.106;2023-09-19T08:52:56;27.73;;;5.15;;
54555;SDS011;57291;37.520;15.106;2023-09-19T08:55:28;22.25;;;5.85;;
54555;SDS011;57291;37.520;15.106;2023-09-19T08:58:14;26.70;;;5.50;;
54555;SDS011;57291;37.520;15.106;2023-09-19T09:00:47;27.92;;;5.90;;
54555;SDS011;57291;37.520;15.106;2023-09-19T09:03:16;28.77;;;5.82;;
54555;SDS011;57291;37.520;15.106;2023-09-19T09:05:46;18.92;;;4.95;;
54555;SDS011;57291;37.520;15.106;2023-09-19T09:08:14;22.85;;;4.35;;
54555;SDS011;57291;37.520;15.106;2023-09-19T09:10:44;29.55;;;5.22;;
54555;SDS011;57291;37.520;15.106;2023-09-19T09:13:11;26.48;;;4.57;;
54555;SDS011;57291;37.520;15.106;2023-09-19T09:15:41;24.40;;;4.25;;
54555;SDS011;57291;37.520;15.106;2023-09-19T09:18:11;20.33;;;4.43;;
54555;SDS011;57291;37.520;15.106;2023-09-19T09:20:38;20.20;;;4.53;;
54555;SDS011;57291;37.520;15.106;2023-09-19T09:23:05;26.70;;;3.92;;
54555;SDS011;57291;37.520;15.106;2023-09-19T09:28:30;21.33;;;4.80;;
54555;SDS011;57291;37.520;15.106;2023-09-19T09:31:00;28.58;;;5.15;;
54555;SDS011;57291;37.520;15.106;2023-09-19T09:33:35;23.92;;;5.32;;
54555;SDS011;57291;37.520;15.106;2023-09-19T09:36:03;27.42;;;5.65;;
54555;SDS011;57291;37.520;15.106;2023-09-19T09:38:47;19.95;;;5.03;;
54555;SDS011;57291;37.520;15.106;2023-09-19T09:41:21;17.40;;;4.40;;
54555;SDS011;57291;37.520;15.106;2023-09-19T09:44:15;21.95;;;5.85;;
54555;SDS011;57291;37.520;15.106;2023-09-19T09:46:45;14.32;;;4.10;;
54555;SDS011;57291;37.520;15.106;2023-09-19T09:49:22;19.70;;;4.38;;
54555;SDS011;57291;37.520;15.106;2023-09-19T09:52:01;15.43;;;4.10;;
54555;SDS011;57291;37.520;15.106;2023-09-19T09:55:05;23.63;;;4.32;;
54555;SDS011;57291;37.520;15.106;2023-09-19T09:57:35;17.85;;;4.72;;
54555;SDS011;57291;37.520;15.106;2023-09-19T10:00:07;17.03;;;5.00;;
54555;SDS011;57291;37.520;15.106;2023-09-19T10:02:40;23.40;;;5.00;;
54555;SDS011;57291;37.520;15.106;2023-09-19T10:05:20;19.55;;;5.43;;
54555;SDS011;57291;37.520;15.106;2023-09-19T10:07:57;24.33;;;5.82;;
54555;SDS011;57291;37.520;15.106;2023-09-19T10:10:40;21.00;;;4.78;;
54555;SDS011;57291;37.520;15.106;2023-09-19T10:13:11;17.55;;;5.30;;
54555;SDS011;57291;37.520;15.106;2023-09-19T10:15:47;15.27;;;4.90;;
54555;SDS011;57291;37.520;15.106;2023-09-19T10:18:22;18.92;;;4.70;;
54555;SDS011;57291;37.520;15.106;2023-09-19T10:20:51;18.02;;;5.22;;
54555;SDS011;57291;37.520;15.106;2023-09-19T10:23:19;18.50;;;4.50;;
54555;SDS011;57291;37.520;15.106;2023-09-19T10:25:51;20.95;;;4.53;;
54555;SDS011;57291;37.520;15.106;2023-09-19T10:28:20;23.17;;;5.35;;
54555;SDS011;57291;37.520;15.106;2023-09-19T10:30:51;19.83;;;5.20;;
54555;SDS011;57291;37.520;15.106;2023-09-19T10:33:24;16.50;;;4.63;;
54555;SDS011;57291;37.520;15.106;2023-09-19T10:35:58;24.67;;;5.90;;
54555;SDS011;57291;37.520;15.106;2023-09-19T10:38:26;20.27;;;5.32;;
54555;SDS011;57291;37.520;15.106;2023-09-19T10:40:56;22.65;;;5.97;;
54555;SDS011;57291;37.520;15.106;2023-09-19T10:43:32;19.77;;;5.45;;
54555;SDS011;57291;37.520;15.106;2023-09-19T10:46:03;18.90;;;6.30;;
54555;SDS011;57291;37.520;15.106;2023-09-19T10:48:38;16.90;;;6.18;;
54555;SDS011;57291;37.520;15.106;2023-09-19T10:51:11;23.33;;;6.18;;
54555;SDS011;57291;37.520;15.106;2023-09-19T10:53:43;22.50;;;5.70;;
54555;SDS011;57291;37.520;15.106;2023-09-19T10:56:17;16.13;;;5.88;;
54555;SDS011;57291;37.520;15.106;2023-09-19T10:58:50;18.08;;;6.55;;
54555;SDS011;57291;37.520;15.106;2023-09-19T11:01:18;28.08;;;6.30;;
54555;SDS011;57291;37.520;15.106;2023-09-19T11:03:47;23.45;;;6.10;;
54555;SDS011;57291;37.520;15.106;2023-09-19T11:06:18;24.25;;;6.03;;
54555;SDS011;57291;37.520;15.106;2023-09-19T11:08:56;27.20;;;6.80;;
54555;SDS011;57291;37.520;15.106;2023-09-19T11:25:46;21.95;;;5.18;;
54555;SDS011;57291;37.520;15.106;2023-09-19T11:30:45;16.27;;;4.57;;
54555;SDS011;57291;37.520;15.106;2023-09-19T11:44:37;16.25;;;5.57;;
54555;SDS011;57291;37.520;15.106;2023-09-19T11:46:52;21.17;;;5.20;;
54555;SDS011;57291;37.520;15.106;2023-09-19T11:49:28;24.52;;;5.80;;
54555;SDS011;57291;37.520;15.106;2023-09-19T11:51:59;19.83;;;4.90;;
54555;SDS011;57291;37.520;15.106;2023-09-19T11:54:28;29.98;;;6.43;;
54555;SDS011;57291;37.520;15.106;2023-09-19T11:56:59;22.10;;;5.80;;
54555;SDS011;57291;37.520;15.106;2023-09-19T11:59:28;17.38;;;4.57;;
54555;SDS011;57291;37.520;15.106;2023-09-19T12:01:58;20.13;;;5.10;;
54555;SDS011;57291;37.520;15.106;2023-09-19T12:07:00;21.23;;;5.10;;
54555;SDS011;57291;37.520;15.106;2023-09-19T12:09:27;23.80;;;5.90;;
54555;SDS011;57291;37.520;15.106;2023-09-19T12:11:55;21.45;;;5.28;;
54555;SDS011;57291;37.520;15.106;2023-09-19T12:14:22;20.15;;;4.78;;
54555;SDS011;57291;37.520;15.106;2023-09-19T12:16:56;26.35;;;5.13;;
54555;SDS011;57291;37.520;15.106;2023-09-19T12:19:25;30.85;;;5.15;;
54555;SDS011;57291;37.520;15.106;2023-09-19T12:21:59;20.90;;;4.68;;
54555;SDS011;57291;37.520;15.106;2023-09-19T12:24:32;20.58;;;4.30;;
54555;SDS011;57291;37.520;15.106;2023-09-19T12:27:02;20.27;;;4.35;;
54555;SDS011;57291;37.520;15.106;2023-09-19T12:29:48;17.83;;;4.07;;
54555;SDS011;57291;37.520;15.106;2023-09-19T12:32:16;16.95;;;4.43;;
54555;SDS011;57291;37.520;15.106;2023-09-19T12:34:51;19.30;;;3.95;;
54555;SDS011;57291;37.520;15.106;2023-09-19T12:37:20;18.55;;;3.72;;
54555;SDS011;57291;37.520;15.106;2023-09-19T12:39:49;22.92;;;4.25;;
54555;SDS011;57291;37.520;15.106;2023-09-19T12:42:22;17.20;;;4.22;;
54555;SDS011;57291;37.520;15.106;2023-09-19T12:44:50;15.05;;;4.05;;
54555;SDS011;57291;37.520;15.106;2023-09-19T12:47:28;16.77;;;3.80;;
54555;SDS011;57291;37.520;15.106;2023-09-19T12:50:05;16.08;;;3.30;;
54555;SDS011;57291;37.520;15.106;2023-09-19T12:52:35;18.10;;;3.45;;
54555;SDS011;57291;37.520;15.106;2023-09-19T12:55:05;18.95;;;3.65;;
54555;SDS011;57291;37.520;15.106;2023-09-19T13:00:06;16.20;;;3.97;;
54555;SDS011;57291;37.520;15.106;2023-09-19T13:02:37;23.07;;;4.23;;
54555;SDS011;57291;37.520;15.106;2023-09-19T13:05:50;23.70;;;3.88;;
54555;SDS011;57291;37.520;15.106;2023-09-19T13:08:20;13.93;;;3.25;;
54555;SDS011;57291;37.520;15.106;2023-09-19T13:13:38;11.60;;;3.40;;
54555;SDS011;57291;37.520;15.106;2023-09-19T13:16:16;12.40;;;3.15;;
54555;SDS011;57291;37.520;15.106;2023-09-19T13:18:57;15.00;;;3.75;;
54555;SDS011;57291;37.520;15.106;2023-09-19T13:21:34;16.50;;;3.67;;
54555;SDS011;57291;37.520;15.106;2023-09-19T13:24:23;13.57;;;3.40;;
54555;SDS011;57291;37.520;15.106;2023-09-19T13:26:54;15.40;;;4.10;;
54555;SDS011;57291;37.520;15.106;2023-09-19T13:29:22;21.73;;;4.65;;
54555;SDS011;57291;37.520;15.106;2023-09-19T13:31:50;22.55;;;5.72;;
54555;SDS011;57291;37.520;15.106;2023-09-19T13:34:22;20.52;;;5.03;;
54555;SDS011;57291;37.520;15.106;2023-09-19T13:36:49;18.38;;;4.70;;
54555;SDS011;57291;37.520;15.106;2023-09-19T13:39:17;15.93;;;4.78;;
54555;SDS011;57291;37.520;15.106;2023-09-19T13:41:45;20.17;;;5.25;;
54555;SDS011;57291;37.520;15.106;2023-09-19T13:44:14;18.38;;;4.57;;
54555;SDS011;57291;37.520;15.106;2023-09-19T13:46:43;18.55;;;5.32;;
54555;SDS011;57291;37.520;15.106;2023-09-19T13:49:15;23.30;;;5.78;;
54555;SDS011;57291;37.520;15.106;2023-09-19T13:51:48;22.98;;;5.47;;
54555;SDS011;57291;37.520;15.106;2023-09-19T13:54:15;18.27;;;5.60;;
54555;SDS011;57291;37.520;15.106;2023-09-19T13:56:42;18.90;;;4.97;;
54555;SDS011;57291;37.520;15.106;2023-09-19T13:59:10;25.52;;;5.28;;
54555;SDS011;57291;37.520;15.106;2023-09-19T14:01:37;18.15;;;4.95;;
54555;SDS011;57291;37.520;15.106;2023-09-19T14:04:06;23.92;;;5.75;;
54555;SDS011;57291;37.520;15.106;2023-09-19T14:06:33;23.35;;;5.38;;
54555;SDS011;57291;37.520;15.106;2023-09-19T14:09:01;25.30;;;5.50;;
54555;SDS011;57291;37.520;15.106;2023-09-19T14:11:28;20.88;;;4.88;;
54555;SDS011;57291;37.520;15.106;2023-09-19T14:13:55;17.50;;;5.07;;
54555;SDS011;57291;37.520;15.106;2023-09-19T14:16:23;18.75;;;5.05;;
54555;SDS011;57291;37.520;15.106;2023-09-19T14:18:51;20.77;;;4.63;;
54555;SDS011;57291;37.520;15.106;2023-09-19T14:21:19;20.52;;;5.30;;
54555;SDS011;57291;37.520;15.106;2023-09-19T14:23:46;17.73;;;4.95;;
54555;SDS011;57291;37.520;15.106;2023-09-19T14:26:13;25.00;;;6.13;;
54555;SDS011;57291;37.520;15.106;2023-09-19T14:28:40;28.80;;;5.28;;
54555;SDS011;57291;37.520;15.106;2023-09-19T14:31:09;15.73;;;4.97;;
54555;SDS011;57291;37.520;15.106;2023-09-19T14:33:37;17.92;;;5.03;;
54555;SDS011;57291;37.520;15.106;2023-09-19T14:36:06;23.65;;;6.32;;
54555;SDS011;57291;37.520;15.106;2023-09-19T14:38:35;14.68;;;5.00;;
54555;SDS011;57291;37.520;15.106;2023-09-19T14:41:06;21.58;;;5.45;;
54555;SDS011;57291;37.520;15.106;2023-09-19T14:43:34;17.80;;;5.30;;
54555;SDS011;57291;37.520;15.106;2023-09-19T14:46:07;26.17;;;5.97;;
54555;SDS011;57291;37.520;15.106;2023-09-19T14:48:37;22.45;;;5.45;;
54555;SDS011;57291;37.520;15.106;2023-09-19T14:51:05;23.20;;;5.57;;
54555;SDS011;57291;37.520;15.106;2023-09-19T14:53:35;23.38;;;5.20;;
54555;SDS011;57291;37.520;15.106;2023-09-19T14:56:07;17.52;;;5.40;;
54555;SDS011;57291;37.520;15.106;2023-09-19T14:58:35;20.40;;;5.45;;
54555;SDS011;57291;37.520;15.106;2023-09-19T15:01:07;20.17;;;5.57;;
54555;SDS011;57291;37.520;15.106;2023-09-19T15:03:37;20.00;;;5.47;;
54555;SDS011;57291;37.520;15.106;2023-09-19T15:06:07;17.73;;;5.63;;
54555;SDS011;57291;37.520;15.106;2023-09-19T15:08:36;15.95;;;4.55;;
54555;SDS011;57291;37.520;15.106;2023-09-19T15:11:08;21.00;;;4.65;;
54555;SDS011;57291;37.520;15.106;2023-09-19T15:13:35;19.02;;;5.60;;
54555;SDS011;57291;37.520;15.106;2023-09-19T15:16:04;15.45;;;5.07;;
54555;SDS011;57291;37.520;15.106;2023-09-19T15:18:36;19.83;;;5.75;;
54555;SDS011;57291;37.520;15.106;2023-09-19T15:21:05;19.65;;;5.28;;
54555;SDS011;57291;37.520;15.106;2023-09-19T15:23:33;16.92;;;5.15;;
54555;SDS011;57291;37.520;15.106;2023-09-19T15:26:01;18.70;;;4.88;;
54555;SDS011;57291;37.520;15.106;2023-09-19T15:28:28;20.77;;;5.05;;
54555;SDS011;57291;37.520;15.106;2023-09-19T15:30:57;17.40;;;4.57;;
54555;SDS011;57291;37.520;15.106;2023-09-19T15:33:26;17.15;;;5.10;;
54555;SDS011;57291;37.520;15.106;2023-09-19T15:36:08;19.60;;;5.25;;